Time;durP1;ratioP1;P1;durP2;ratioP2;P2;SDS_P1;SDS_P2;PMS_P1;PMS_P2;Temp;Humidity;BMP_temperature;BMP_pressure;BME280_temperature;BME280_humidity;BME280_pressure;Samples;Min_cycle;Max_cycle;Signal;HPM_P1;HPM_P2
2023/08/04 00:01:25;;;;;;;;;;;13.40;99.90;;;;;;5038899;28;19904;-86
2023/08/04 00:03:51;;;;;;;;;;;13.40;99.90;;;;;;5038266;28;19956;-87
2023/08/04 00:06:17;;;;;;;;;;;13.40;99.90;;;;;;5055324;28;19916;-86
2023/08/04 00:08:42;;;;;;;;;;;13.40;99.90;;;;;;5038775;28;20780;-87
2023/08/04 00:11:08;;;;;;;;;;;13.40;99.90;;;;;;5038436;28;19944;-87
2023/08/04 00:13:34;;;;;;;;;;;13.40;99.90;;;;;;5038124;28;20407;-86
2023/08/04 00:16:03;;;;;;;;;;;13.40;99.90;;;;;;5038530;28;19935;-86
2023/08/04 00:18:29;;;;;;;;;;;13.40;99.90;;;;;;5038262;28;19909;-86
2023/08/04 00:21:01;;;;;;;;;;;13.40;99.90;;;;;;5038619;28;19931;-86
2023/08/04 00:23:26;;;;;;;;;;;13.40;99.90;;;;;;5069831;28;19909;-86
2023/08/04 00:25:52;;;;;;;;;;;13.40;99.90;;;;;;5055079;28;19916;-86
2023/08/04 00:28:17;;;;;;;;;;;13.40;99.90;;;;;;5054711;28;19916;-86
2023/08/04 00:30:43;;;;;;;;;;;13.30;99.90;;;;;;5038026;28;19909;-87
2023/08/04 00:33:09;;;;;;;;;;;13.30;99.90;;;;;;5054555;28;19996;-86
2023/08/04 00:35:39;;;;;;;;;;;13.30;99.90;;;;;;5053983;28;20019;-86
2023/08/04 00:38:05;;;;;;;;;;;13.20;99.90;;;;;;5054526;28;19909;-86
2023/08/04 00:40:31;;;;;;;;;;;13.20;99.90;;;;;;5037380;28;19915;-86
2023/08/04 00:42:56;;;;;;;;;;;13.20;99.90;;;;;;5054736;28;19960;-86
2023/08/04 00:45:24;;;;;;;;;;;13.20;99.90;;;;;;5037358;28;20386;-86
2023/08/04 00:47:51;;;;;;;;;;;13.20;99.90;;;;;;5037827;28;19905;-86
2023/08/04 00:50:18;;;;;;;;;;;13.20;99.90;;;;;;5037858;28;19913;-86
2023/08/04 00:52:44;;;;;;;;;;;13.20;99.90;;;;;;5070928;28;19915;-86
2023/08/04 00:55:10;;;;;;;;;;;13.20;99.90;;;;;;5037727;28;19913;-86
2023/08/04 00:57:36;;;;;;;;;;;13.20;99.90;;;;;;5053954;28;20626;-86
2023/08/04 01:00:02;;;;;;;;;;;13.10;99.90;;;;;;5037582;28;19904;-86
2023/08/04 01:02:28;;;;;;;;;;;13.10;99.90;;;;;;5054777;28;19962;-86
2023/08/04 01:04:54;;;;;;;;;;;13.10;99.90;;;;;;5054332;28;20318;-86
2023/08/04 01:07:24;;;;;;;;;;;13.10;99.90;;;;;;5054144;28;20253;-86
2023/08/04 01:10:01;;;;;;;;;;;13.10;99.90;;;;;;5037426;28;19992;-86
2023/08/04 01:12:30;;;;;;;;;;;13.10;99.90;;;;;;5070348;28;19920;-85
2023/08/04 01:14:57;;;;;;;;;;;13.10;99.90;;;;;;5037198;28;19912;-86
2023/08/04 01:17:23;;;;;;;;;;;13.20;99.90;;;;;;5053825;28;19908;-86
2023/08/04 01:19:49;;;;;;;;;;;13.20;99.90;;;;;;5053656;28;19908;-86
2023/08/04 01:22:14;;;;;;;;;;;13.20;99.90;;;;;;5054073;28;19932;-86
2023/08/04 01:24:40;;;;;;;;;;;13.30;99.90;;;;;;5037501;28;19999;-86
2023/08/04 01:27:07;;;;;;;;;;;13.30;99.90;;;;;;5037565;28;19916;-86
2023/08/04 01:29:33;;;;;;;;;;;13.30;99.90;;;;;;5036646;28;20031;-86
2023/08/04 01:31:59;;;;;;;;;;;13.30;99.90;;;;;;5035812;28;20034;-86
2023/08/04 01:34:24;;;;;;;;;;;13.30;99.90;;;;;;5036556;28;19912;-86
2023/08/04 01:37:17;;;;;;;;;;;13.30;99.90;;;;;;5036668;28;19909;-86
2023/08/04 01:46:16;;;;;;;;;;;13.40;99.90;;;;;;5049628;28;19953;-86
2023/08/04 01:48:41;;;;;;;;;;;13.30;99.90;;;;;;5052898;28;19908;-86
2023/08/04 01:51:07;;;;;;;;;;;13.30;99.90;;;;;;5051856;28;19913;-86
2023/08/04 01:53:33;;;;;;;;;;;13.30;99.90;;;;;;5052986;28;19908;-86
2023/08/04 01:55:59;;;;;;;;;;;13.30;99.90;;;;;;5036156;28;19913;-86
2023/08/04 01:58:25;;;;;;;;;;;13.30;99.90;;;;;;5036648;28;19909;-86
2023/08/04 02:00:50;;;;;;;;;;;13.30;99.90;;;;;;5054500;28;19908;-87
2023/08/04 02:03:17;;;;;;;;;;;13.30;99.90;;;;;;5036472;28;19919;-86
2023/08/04 02:05:47;;;;;;;;;;;13.30;99.90;;;;;;5036192;28;19912;-86
2023/08/04 02:08:12;;;;;;;;;;;13.30;99.90;;;;;;5037166;28;19909;-86
2023/08/04 02:10:45;;;;;;;;;;;13.30;99.90;;;;;;5057468;28;19932;-86
2023/08/04 02:13:11;;;;;;;;;;;13.30;99.90;;;;;;5044103;28;19955;-86
2023/08/04 02:15:36;;;;;;;;;;;13.30;99.90;;;;;;5058943;28;19912;-86
2023/08/04 02:18:02;;;;;;;;;;;13.30;99.90;;;;;;5047444;28;19914;-86
2023/08/04 02:20:28;;;;;;;;;;;13.30;99.90;;;;;;5055318;28;19909;-86
2023/08/04 02:22:54;;;;;;;;;;;13.30;99.90;;;;;;5055527;28;19915;-86
2023/08/04 02:25:19;;;;;;;;;;;13.30;99.90;;;;;;5049292;28;19939;-87
2023/08/04 02:27:46;;;;;;;;;;;13.30;99.90;;;;;;5053430;28;19908;-86
2023/08/04 02:30:12;;;;;;;;;;;13.30;99.90;;;;;;5053391;28;19909;-86
2023/08/04 02:32:37;;;;;;;;;;;13.30;99.90;;;;;;5036983;28;19909;-86
2023/08/04 02:35:03;;;;;;;;;;;13.30;99.90;;;;;;5054315;28;20321;-86
2023/08/04 02:37:29;;;;;;;;;;;13.20;99.90;;;;;;5053065;28;19908;-86
2023/08/04 02:39:54;;;;;;;;;;;13.30;99.90;;;;;;5036299;28;19917;-86
2023/08/04 02:42:20;;;;;;;;;;;13.30;99.90;;;;;;5036566;28;19908;-86
2023/08/04 02:44:45;;;;;;;;;;;13.30;99.90;;;;;;5053252;28;19904;-87
2023/08/04 02:47:11;;;;;;;;;;;13.30;99.90;;;;;;5052563;28;19948;-86
2023/08/04 02:49:37;;;;;;;;;;;13.30;99.90;;;;;;5069213;28;19919;-86
2023/08/04 02:52:03;;;;;;;;;;;13.30;99.90;;;;;;5035848;28;19955;-86
2023/08/04 02:54:29;;;;;;;;;;;13.30;99.90;;;;;;5052392;28;20379;-86
2023/08/04 02:56:55;;;;;;;;;;;13.30;99.90;;;;;;5036061;28;19909;-86
2023/08/04 02:59:20;;;;;;;;;;;13.30;99.90;;;;;;5052107;28;19909;-86
2023/08/04 03:01:46;;;;;;;;;;;13.20;99.90;;;;;;5035876;28;19908;-86
2023/08/04 03:04:13;;;;;;;;;;;13.20;99.90;;;;;;5051957;28;19975;-86
2023/08/04 03:06:39;;;;;;;;;;;13.20;99.90;;;;;;5052233;28;19913;-86
2023/08/04 03:09:05;;;;;;;;;;;13.30;99.90;;;;;;5052364;28;19954;-86
2023/08/04 03:11:30;;;;;;;;;;;13.30;99.90;;;;;;5035294;28;19909;-86
2023/08/04 03:13:56;;;;;;;;;;;13.30;99.90;;;;;;5051929;28;19909;-86
2023/08/04 03:16:21;;;;;;;;;;;13.30;99.90;;;;;;5035069;28;19924;-86
2023/08/04 03:18:47;;;;;;;;;;;13.30;99.90;;;;;;5052359;28;19959;-86
2023/08/04 03:21:13;;;;;;;;;;;13.30;99.90;;;;;;5035398;28;19913;-86
2023/08/04 03:23:38;;;;;;;;;;;13.30;99.90;;;;;;5052720;28;19912;-87
2023/08/04 03:26:04;;;;;;;;;;;13.30;99.90;;;;;;5035549;28;19995;-87
2023/08/04 03:28:29;;;;;;;;;;;13.30;99.90;;;;;;5052289;28;19908;-86
2023/08/04 03:30:55;;;;;;;;;;;13.30;99.90;;;;;;5036065;28;19909;-86
2023/08/04 03:33:21;;;;;;;;;;;13.30;99.90;;;;;;5052246;28;20267;-86
2023/08/04 03:35:46;;;;;;;;;;;13.30;99.90;;;;;;5035417;28;19912;-86
2023/08/04 03:38:12;;;;;;;;;;;13.20;99.90;;;;;;5053528;28;20439;-86
2023/08/04 03:44:38;;;;;;;;;;;13.20;99.90;;;;;;5053097;28;20362;-86
2023/08/04 03:47:03;;;;;;;;;;;13.20;99.90;;;;;;5068127;28;20010;-86
2023/08/04 03:49:29;;;;;;;;;;;13.20;99.90;;;;;;5051334;28;19908;-86
2023/08/04 03:51:55;;;;;;;;;;;13.20;99.90;;;;;;5051448;28;19921;-86
2023/08/04 03:54:20;;;;;;;;;;;13.20;99.90;;;;;;5051971;28;19908;-86
2023/08/04 03:56:46;;;;;;;;;;;13.10;99.90;;;;;;5052004;28;19909;-86
2023/08/04 03:59:12;;;;;;;;;;;13.10;99.90;;;;;;5051986;28;20543;-86
2023/08/04 04:01:38;;;;;;;;;;;13.10;99.90;;;;;;5031899;28;19909;-86
2023/08/04 04:04:04;;;;;;;;;;;13.20;99.90;;;;;;5031226;28;20007;-87
2023/08/04 04:06:32;;;;;;;;;;;13.20;99.90;;;;;;5068209;28;20003;-87
2023/08/04 04:08:58;;;;;;;;;;;13.20;99.90;;;;;;5068569;28;20380;-86
2023/08/04 04:11:23;;;;;;;;;;;13.20;99.90;;;;;;5052118;28;19952;-86
2023/08/04 04:13:49;;;;;;;;;;;13.20;99.90;;;;;;5052247;28;19915;-87
2023/08/04 04:16:15;;;;;;;;;;;13.10;99.90;;;;;;5039183;28;19904;-87
2023/08/04 04:18:40;;;;;;;;;;;13.10;99.90;;;;;;5055140;28;20464;-87
2023/08/04 04:21:15;;;;;;;;;;;13.00;99.90;;;;;;5038554;28;19909;-87
2023/08/04 04:23:40;;;;;;;;;;;13.00;99.90;;;;;;5055106;28;19916;-87
2023/08/04 04:26:43;;;;;;;;;;;13.10;99.90;;;;;;5038958;28;19917;-87
2023/08/04 04:29:09;;;;;;;;;;;13.10;99.90;;;;;;5072914;28;19909;-87
2023/08/04 04:31:36;;;;;;;;;;;13.10;99.90;;;;;;5088805;28;20276;-87
2023/08/04 04:34:02;;;;;;;;;;;13.10;99.90;;;;;;5055987;28;19932;-88
2023/08/04 04:36:28;;;;;;;;;;;13.20;99.90;;;;;;5072023;28;19912;-88
2023/08/04 04:38:53;;;;;;;;;;;13.20;99.90;;;;;;5038619;28;20364;-87
2023/08/04 04:41:19;;;;;;;;;;;13.20;99.90;;;;;;5054990;28;19996;-87
2023/08/04 04:43:44;;;;;;;;;;;13.20;99.90;;;;;;5038713;28;19909;-87
2023/08/04 04:46:10;;;;;;;;;;;13.20;99.90;;;;;;5054716;28;19913;-87
2023/08/04 04:48:36;;;;;;;;;;;13.20;99.90;;;;;;5039129;28;19966;-87
2023/08/04 04:51:01;;;;;;;;;;;13.20;99.90;;;;;;5088269;28;20474;-87
2023/08/04 04:53:27;;;;;;;;;;;13.20;99.90;;;;;;5054825;28;19952;-87
2023/08/04 04:55:52;;;;;;;;;;;13.20;99.90;;;;;;5054685;28;19908;-87
2023/08/04 04:58:18;;;;;;;;;;;13.20;99.90;;;;;;5038101;28;20395;-87
2023/08/04 05:00:45;;;;;;;;;;;13.20;99.90;;;;;;5054550;28;19913;-87
2023/08/04 05:03:10;;;;;;;;;;;13.20;99.90;;;;;;5037973;28;19909;-87
2023/08/04 05:05:36;;;;;;;;;;;13.20;99.90;;;;;;5070765;28;19913;-88
2023/08/04 05:08:02;;;;;;;;;;;13.20;99.90;;;;;;5087626;28;20524;-87
2023/08/04 05:10:28;;;;;;;;;;;13.20;99.90;;;;;;5054924;28;19908;-87
2023/08/04 05:12:53;;;;;;;;;;;13.20;99.90;;;;;;5054363;28;20463;-87
2023/08/04 05:15:19;;;;;;;;;;;13.20;99.90;;;;;;5054494;28;19913;-86
2023/08/04 05:17:45;;;;;;;;;;;13.20;99.90;;;;;;5054002;28;19909;-87
2023/08/04 05:20:14;;;;;;;;;;;13.20;99.90;;;;;;5042753;28;19909;-87
2023/08/04 05:22:40;;;;;;;;;;;13.20;99.90;;;;;;5042260;28;19913;-87
2023/08/04 05:25:06;;;;;;;;;;;13.20;99.90;;;;;;5075886;28;20602;-85
2023/08/04 05:27:32;;;;;;;;;;;13.20;99.90;;;;;;5045649;28;19935;-86
2023/08/04 05:29:57;;;;;;;;;;;13.20;99.90;;;;;;5054800;28;19908;-87
2023/08/04 05:32:23;;;;;;;;;;;13.20;99.90;;;;;;5038341;28;20310;-87
2023/08/04 05:34:49;;;;;;;;;;;13.30;99.90;;;;;;5054656;28;19916;-87
2023/08/04 05:37:14;;;;;;;;;;;13.30;99.90;;;;;;5037393;28;20374;-87
2023/08/04 05:39:40;;;;;;;;;;;13.40;99.90;;;;;;5054011;28;19958;-87
2023/08/04 05:42:06;;;;;;;;;;;13.50;99.90;;;;;;5086974;28;19917;-87
2023/08/04 05:44:31;;;;;;;;;;;13.60;99.90;;;;;;5053553;28;19920;-87
2023/08/04 05:46:58;;;;;;;;;;;13.60;99.90;;;;;;5036785;28;19917;-87
2023/08/04 05:49:23;;;;;;;;;;;13.70;99.90;;;;;;5053736;28;20007;-88
2023/08/04 05:51:49;;;;;;;;;;;13.80;99.90;;;;;;5036723;28;20401;-87
2023/08/04 05:54:15;;;;;;;;;;;13.90;99.90;;;;;;5036829;28;19905;-88
2023/08/04 05:56:40;;;;;;;;;;;13.90;99.90;;;;;;5029523;28;19912;-88
2023/08/04 05:59:06;;;;;;;;;;;13.80;99.90;;;;;;5052551;28;19923;-87
2023/08/04 06:01:32;;;;;;;;;;;13.80;99.90;;;;;;5032501;28;19909;-88
2023/08/04 06:03:57;;;;;;;;;;;14.00;99.90;;;;;;5034115;28;19909;-87
2023/08/04 06:06:23;;;;;;;;;;;14.10;99.90;;;;;;5036379;28;19909;-87
2023/08/04 06:08:49;;;;;;;;;;;14.30;99.90;;;;;;5063787;28;19909;-87
2023/08/04 06:11:14;;;;;;;;;;;14.30;99.90;;;;;;5052787;28;20390;-88
2023/08/04 06:13:40;;;;;;;;;;;14.20;99.90;;;;;;5032502;28;19952;-88
2023/08/04 06:16:06;;;;;;;;;;;14.30;99.90;;;;;;5035288;28;19909;-88
2023/08/04 06:18:32;;;;;;;;;;;14.30;99.90;;;;;;5050714;28;19913;-87
2023/08/04 06:20:57;;;;;;;;;;;14.40;99.90;;;;;;5043705;28;19913;-87
2023/08/04 06:23:23;;;;;;;;;;;14.40;99.90;;;;;;5052648;28;20331;-87
2023/08/04 06:25:49;;;;;;;;;;;14.50;99.90;;;;;;5046995;28;19920;-87
2023/08/04 06:28:14;;;;;;;;;;;14.50;99.90;;;;;;5052183;28;19908;-87
2023/08/04 06:30:40;;;;;;;;;;;14.50;99.90;;;;;;5035188;28;19987;-88
2023/08/04 06:33:06;;;;;;;;;;;14.40;99.90;;;;;;5035847;28;19915;-87
2023/08/04 06:35:31;;;;;;;;;;;14.30;99.90;;;;;;5035910;28;19919;-88
2023/08/04 06:37:58;;;;;;;;;;;14.20;99.90;;;;;;5050820;28;19920;-88
2023/08/04 06:40:23;;;;;;;;;;;14.10;99.90;;;;;;5034181;28;19916;-88
2023/08/04 06:42:49;;;;;;;;;;;14.20;99.90;;;;;;5031726;28;19913;-88
2023/08/04 06:45:15;;;;;;;;;;;14.30;99.90;;;;;;5052498;28;19967;-87
2023/08/04 06:47:41;;;;;;;;;;;14.40;99.90;;;;;;5034629;28;19913;-88
2023/08/04 06:50:07;;;;;;;;;;;14.40;99.90;;;;;;5046383;28;19924;-87
2023/08/04 06:52:33;;;;;;;;;;;14.40;99.90;;;;;;5035361;28;19908;-87
2023/08/04 06:54:59;;;;;;;;;;;14.30;99.90;;;;;;5048287;28;20337;-87
2023/08/04 06:57:24;;;;;;;;;;;14.40;99.90;;;;;;5035252;28;19963;-88
2023/08/04 06:59:50;;;;;;;;;;;14.50;99.90;;;;;;5033540;28;20363;-87
2023/08/04 07:02:16;;;;;;;;;;;14.60;99.90;;;;;;5084947;28;19908;-88
2023/08/04 07:04:42;;;;;;;;;;;14.80;99.90;;;;;;5035602;28;20003;-88
2023/08/04 07:07:07;;;;;;;;;;;14.80;99.90;;;;;;5035733;28;20011;-88
2023/08/04 07:09:33;;;;;;;;;;;15.00;99.90;;;;;;5035468;28;19909;-88
2023/08/04 07:12:01;;;;;;;;;;;15.20;99.90;;;;;;5048287;28;19913;-88
2023/08/04 07:14:27;;;;;;;;;;;15.30;99.90;;;;;;5035806;28;19943;-88
2023/08/04 07:16:53;;;;;;;;;;;15.30;99.90;;;;;;5051080;28;19995;-87
2023/08/04 07:19:19;;;;;;;;;;;15.40;99.90;;;;;;5033272;28;19952;-88
2023/08/04 07:21:45;;;;;;;;;;;15.50;99.90;;;;;;5046770;28;20386;-87
2023/08/04 07:24:10;;;;;;;;;;;15.50;99.90;;;;;;5034821;28;19995;-87
2023/08/04 07:26:36;;;;;;;;;;;15.40;99.90;;;;;;5034897;28;19916;-87
2023/08/04 07:29:02;;;;;;;;;;;15.10;99.90;;;;;;5048402;28;20337;-87
2023/08/04 07:31:28;;;;;;;;;;;14.90;99.90;;;;;;5034860;28;19909;-87
2023/08/04 07:33:55;;;;;;;;;;;14.80;99.90;;;;;;5033125;28;20394;-87
2023/08/04 07:36:21;;;;;;;;;;;14.80;99.90;;;;;;5033772;28;20380;-87
2023/08/04 07:38:46;;;;;;;;;;;15.00;99.90;;;;;;5034944;28;19958;-87
2023/08/04 07:41:19;;;;;;;;;;;15.00;99.90;;;;;;5046140;28;20352;-87
2023/08/04 07:43:44;;;;;;;;;;;15.00;99.90;;;;;;5035296;28;19923;-87
2023/08/04 07:46:18;;;;;;;;;;;15.20;99.90;;;;;;5063870;28;19976;-87
2023/08/04 07:48:44;;;;;;;;;;;15.30;99.90;;;;;;5034992;28;19913;-87
2023/08/04 07:51:10;;;;;;;;;;;15.60;99.90;;;;;;5052862;28;19916;-87
2023/08/04 07:53:36;;;;;;;;;;;15.50;99.90;;;;;;5038497;28;19909;-87
2023/08/04 07:56:02;;;;;;;;;;;15.40;99.90;;;;;;5046684;28;20046;-87
2023/08/04 07:58:27;;;;;;;;;;;15.20;99.90;;;;;;5052750;28;19916;-87
2023/08/04 08:00:53;;;;;;;;;;;15.20;99.90;;;;;;5048896;28;19915;-87
2023/08/04 08:03:18;;;;;;;;;;;15.20;99.90;;;;;;5037439;28;19932;-87
2023/08/04 08:05:44;;;;;;;;;;;15.40;99.90;;;;;;5038331;28;19919;-87
2023/08/04 08:08:10;;;;;;;;;;;15.40;99.90;;;;;;5052289;28;20008;-87
2023/08/04 08:10:35;;;;;;;;;;;15.30;99.90;;;;;;5038833;28;19908;-86
2023/08/04 08:13:02;;;;;;;;;;;15.20;99.90;;;;;;5053643;28;20379;-87
2023/08/04 08:15:28;;;;;;;;;;;15.30;99.90;;;;;;5038765;28;19909;-86
2023/08/04 08:17:53;;;;;;;;;;;15.40;99.90;;;;;;5036385;28;20352;-87
2023/08/04 08:20:19;;;;;;;;;;;15.50;99.90;;;;;;5051899;28;19905;-87
2023/08/04 08:22:44;;;;;;;;;;;15.30;99.90;;;;;;5065547;28;19913;-87
2023/08/04 08:25:12;;;;;;;;;;;15.30;99.90;;;;;;5054672;28;19940;-87
2023/08/04 08:27:38;;;;;;;;;;;15.60;99.90;;;;;;5037645;28;19909;-87
2023/08/04 08:30:04;;;;;;;;;;;16.20;99.90;;;;;;5054184;28;19912;-87
2023/08/04 08:32:29;;;;;;;;;;;16.40;99.90;;;;;;5038586;28;19958;-88
2023/08/04 08:34:55;;;;;;;;;;;16.80;99.90;;;;;;5057258;28;20310;-87
2023/08/04 08:37:20;;;;;;;;;;;16.80;99.90;;;;;;5076119;28;19936;-87
2023/08/04 08:39:46;;;;;;;;;;;17.50;99.90;;;;;;5047734;28;19916;-85
2023/08/04 08:42:11;;;;;;;;;;;18.80;99.90;;;;;;5055527;28;19909;-85
2023/08/04 08:44:37;;;;;;;;;;;20.20;99.90;;;;;;5058354;28;20375;-86
2023/08/04 08:47:02;;;;;;;;;;;21.40;99.90;;;;;;5055041;28;20410;-85
2023/08/04 08:49:31;;;;;;;;;;;22.00;99.90;;;;;;5038310;28;19991;-85
2023/08/04 08:51:58;;;;;;;;;;;21.60;99.90;;;;;;5057755;28;20125;-86
2023/08/04 08:54:24;;;;;;;;;;;20.70;99.90;;;;;;5038662;28;19915;-86
2023/08/04 08:56:49;;;;;;;;;;;19.70;99.90;;;;;;5055473;28;19909;-87
2023/08/04 08:59:15;;;;;;;;;;;18.70;99.90;;;;;;5039124;28;19978;-87
2023/08/04 09:01:41;;;;;;;;;;;17.70;99.90;;;;;;5037804;28;20351;-87
2023/08/04 09:04:06;;;;;;;;;;;16.90;99.90;;;;;;5038583;28;19913;-87
2023/08/04 09:06:35;;;;;;;;;;;16.50;99.90;;;;;;5038394;28;19963;-87
2023/08/04 09:09:02;;;;;;;;;;;16.20;99.90;;;;;;5038982;28;20264;-87
2023/08/04 09:11:31;;;;;;;;;;;16.00;99.90;;;;;;5054750;28;20379;-87
2023/08/04 09:13:57;;;;;;;;;;;16.10;99.90;;;;;;5038012;28;19912;-87
2023/08/04 09:16:33;;;;;;;;;;;16.50;99.90;;;;;;5054803;28;19916;-86
2023/08/04 09:19:05;;;;;;;;;;;16.90;99.90;;;;;;5054929;28;19971;-86
2023/08/04 09:21:31;;;;;;;;;;;17.10;99.90;;;;;;5054750;28;20007;-87
2023/08/04 09:23:57;;;;;;;;;;;17.10;99.90;;;;;;5038269;28;20379;-87
2023/08/04 09:26:22;;;;;;;;;;;16.90;99.90;;;;;;5054658;28;19913;-87
2023/08/04 09:29:02;;;;;;;;;;;16.40;99.90;;;;;;5038234;28;19943;-87
2023/08/04 09:31:33;;;;;;;;;;;16.20;99.90;;;;;;5037522;28;19920;-87
2023/08/04 09:34:14;;;;;;;;;;;16.00;99.90;;;;;;5037752;28;19915;-87
2023/08/04 09:36:47;;;;;;;;;;;15.90;99.90;;;;;;5055902;28;19913;-86
2023/08/04 09:39:12;;;;;;;;;;;15.80;99.90;;;;;;5031904;28;19909;-87
2023/08/04 09:41:41;;;;;;;;;;;15.80;99.90;;;;;;5053028;28;20347;-86
2023/08/04 09:44:07;;;;;;;;;;;15.80;99.90;;;;;;5048158;28;19913;-87
2023/08/04 09:46:49;;;;;;;;;;;15.70;99.90;;;;;;5070251;28;19942;-87
2023/08/04 09:49:15;;;;;;;;;;;15.60;99.90;;;;;;5051495;28;20003;-86
2023/08/04 09:51:43;;;;;;;;;;;15.40;99.90;;;;;;5033689;28;20331;-87
2023/08/04 09:54:10;;;;;;;;;;;15.30;99.90;;;;;;5048646;28;19959;-86
2023/08/04 09:56:35;;;;;;;;;;;15.40;99.90;;;;;;5035758;28;19963;-86
2023/08/04 09:59:01;;;;;;;;;;;15.60;99.90;;;;;;5082437;28;20356;-87
2023/08/04 10:01:28;;;;;;;;;;;15.70;99.90;;;;;;5068016;28;19956;-88
2023/08/04 10:03:55;;;;;;;;;;;15.50;99.90;;;;;;5033410;28;19909;-87
2023/08/04 10:06:21;;;;;;;;;;;15.40;99.90;;;;;;5068472;28;20395;-88
2023/08/04 10:08:48;;;;;;;;;;;15.40;99.90;;;;;;5037073;28;19959;-87
2023/08/04 10:11:13;;;;;;;;;;;15.20;99.90;;;;;;5052495;28;19952;-88
2023/08/04 10:13:41;;;;;;;;;;;15.10;99.90;;;;;;5035426;28;20279;-87
2023/08/04 10:16:08;;;;;;;;;;;15.20;99.90;;;;;;5049399;28;20034;-86
2023/08/04 10:18:46;;;;;;;;;;;15.30;99.90;;;;;;5049950;28;19908;-87
2023/08/04 10:21:11;;;;;;;;;;;15.20;99.90;;;;;;5037167;28;20279;-87
2023/08/04 10:23:37;;;;;;;;;;;15.30;99.90;;;;;;5050936;28;19915;-87
2023/08/04 10:26:25;;;;;;;;;;;15.30;99.90;;;;;;5049558;28;20490;-88
2023/08/04 10:29:01;;;;;;;;;;;15.30;99.90;;;;;;5060125;28;19915;-87
2023/08/04 10:31:41;;;;;;;;;;;15.50;99.90;;;;;;5053747;28;20352;-88
2023/08/04 10:34:16;;;;;;;;;;;15.70;99.90;;;;;;5037242;28;19913;-88
2023/08/04 10:37:01;;;;;;;;;;;15.80;99.90;;;;;;5029072;28;19909;-87
2023/08/04 10:39:40;;;;;;;;;;;16.10;99.90;;;;;;5036448;28;19999;-88
2023/08/04 10:42:09;;;;;;;;;;;16.20;99.90;;;;;;5036781;28;19966;-87
2023/08/04 10:44:48;;;;;;;;;;;16.30;99.90;;;;;;5036393;28;19920;-87
2023/08/04 10:47:14;;;;;;;;;;;16.40;99.90;;;;;;5036626;28;19967;-88
2023/08/04 10:49:40;;;;;;;;;;;16.70;99.90;;;;;;5054749;28;19912;-87
2023/08/04 10:52:05;;;;;;;;;;;16.90;99.90;;;;;;5037475;28;19951;-85
2023/08/04 10:54:31;;;;;;;;;;;17.10;99.90;;;;;;5053423;28;20398;-87
2023/08/04 10:56:57;;;;;;;;;;;17.60;99.90;;;;;;5036686;28;19912;-87
2023/08/04 10:59:22;;;;;;;;;;;18.10;99.90;;;;;;5036802;28;19909;-87
2023/08/04 11:02:00;;;;;;;;;;;18.70;99.90;;;;;;5036398;28;19953;-87
2023/08/04 11:04:26;;;;;;;;;;;18.90;99.90;;;;;;5052977;28;19932;-88
2023/08/04 11:06:56;;;;;;;;;;;19.00;99.90;;;;;;5036329;28;20344;-87
2023/08/04 11:09:22;;;;;;;;;;;19.30;99.90;;;;;;5052743;28;19988;-88
2023/08/04 11:11:48;;;;;;;0.85;0.70;;;19.90;99.90;;;;;;5035617;28;20506;-88
2023/08/04 11:14:13;;;;;;;0.85;0.63;;;20.30;99.90;;;;;;5035773;28;20043;-88
2023/08/04 11:16:39;;;;;;;0.70;0.60;;;20.10;99.90;;;;;;5052497;28;20515;-87
2023/08/04 11:19:20;;;;;;;0.60;0.60;;;20.10;99.90;;;;;;5034991;28;20060;-88
2023/08/04 11:21:46;;;;;;;1.00;0.40;;;20.50;99.90;;;;;;5035476;28;20039;-88
2023/08/04 11:24:12;;;;;;;0.57;0.50;;;20.70;99.90;;;;;;5053228;28;20021;-87
2023/08/04 11:26:37;;;;;;;0.60;0.60;;;20.50;99.90;;;;;;5039297;28;20036;-87
2023/08/04 11:29:04;;;;;;;2.03;0.70;;;19.90;99.90;;;;;;5039360;28;20032;-87
2023/08/04 11:31:32;;;;;;;0.63;0.60;;;19.70;99.90;;;;;;5039242;28;20025;-87
2023/08/04 11:33:58;;;;;;;1.25;0.60;;;19.60;99.90;;;;;;5039390;28;20052;-87
2023/08/04 11:36:24;;;;;;;0.60;0.60;;;19.40;99.90;;;;;;5040066;28;20048;-87
2023/08/04 11:38:50;;;;;;;1.35;0.80;;;19.20;99.90;;;;;;5039978;28;20029;-87
2023/08/04 11:41:21;;;;;;;0.93;0.70;;;19.20;99.90;;;;;;5039554;28;20033;-87
2023/08/04 11:43:46;;;;;;;;;;;19.30;99.90;;;;;;5073199;28;20527;-87
2023/08/04 11:46:12;;;;;;;3.38;1.00;;;19.70;99.90;;;;;;5055965;28;19940;-87
2023/08/04 11:48:38;;;;;;;1.48;1.17;;;19.90;99.90;;;;;;5055956;28;20388;-87
2023/08/04 11:51:08;;;;;;;1.52;1.00;;;20.40;99.90;;;;;;5056848;28;20029;-87
2023/08/04 11:53:36;;;;;;;1.30;1.17;;;21.50;99.90;;;;;;5039581;28;20116;-87
2023/08/04 11:56:14;;;;;;;1.27;1.17;;;22.10;99.90;;;;;;5056684;28;20734;-87
2023/08/04 11:58:40;;;;;;;1.40;1.30;;;21.80;99.90;;;;;;5039399;28;20078;-85
2023/08/04 12:01:28;;;;;;;2.05;1.30;;;21.40;99.90;;;;;;5038705;28;20048;-86
2023/08/04 12:03:54;;;;;;;2.00;1.80;;;20.50;99.90;;;;;;5060527;28;20029;-86
2023/08/04 12:06:24;;;;;;;2.40;1.90;;;20.10;99.90;;;;;;5034910;28;20572;-86
2023/08/04 12:08:55;;;;;;;2.30;2.10;;;19.60;99.90;;;;;;5054405;28;20025;-87
2023/08/04 12:11:23;;;;;;;2.78;2.42;;;19.20;99.90;;;;;;5051422;28;20029;-86
2023/08/04 12:13:49;;;;;;;3.40;2.10;;;19.20;99.90;;;;;;5037745;28;20025;-86
2023/08/04 12:16:17;;;;;;;3.33;1.80;;;19.30;99.90;;;;;;5038425;28;20087;-85
2023/08/04 12:18:44;;;;;;;1.77;1.67;;;19.10;99.90;;;;;;5053312;28;20037;-85
2023/08/04 12:21:10;;;;;;;2.50;1.88;;;19.00;99.90;;;;;;5054908;28;20025;-85
2023/08/04 12:23:46;;;;;;;2.55;1.58;;;19.20;99.90;;;;;;5037043;28;20036;-85
2023/08/04 12:26:11;;;;;;;1.83;1.70;;;19.30;99.90;;;;;;5047557;28;20033;-85
2023/08/04 12:28:37;;;;;;;2.00;1.80;;;19.30;99.90;;;;;;5036118;28;20119;-86
2023/08/04 12:31:09;;;;;;;1.77;1.63;;;18.80;99.90;;;;;;5051943;28;20483;-86
2023/08/04 12:33:35;;;;;;;1.85;1.70;;;18.30;99.90;;;;;;5071642;28;20033;-85
2023/08/04 12:36:00;;;;;;;1.70;1.60;;;17.80;99.90;;;;;;5034616;28;20037;-86
2023/08/04 12:38:26;;;;;;;4.95;3.95;;;17.60;99.90;;;;;;5034503;28;20029;-85
2023/08/04 12:40:52;;;;;;;5.85;4.03;;;17.50;99.90;;;;;;5051200;28;20020;-86
2023/08/04 12:43:18;;;;;;;3.42;3.13;;;17.60;99.90;;;;;;5031513;28;20431;-86
2023/08/04 12:45:43;;;;;;;3.00;2.20;;;17.90;99.90;;;;;;5035016;28;20033;-85
2023/08/04 12:49:01;;;;;;;2.63;2.20;;;18.20;99.90;;;;;;5063969;28;20035;-86
2023/08/04 12:51:27;;;;;;;2.10;1.75;;;18.60;99.90;;;;;;5037627;28;20421;-86
2023/08/04 12:54:17;;;;;;;2.03;1.42;;;19.10;99.90;;;;;;5054225;28;20044;-86
2023/08/04 12:56:43;;;;;;;1.20;1.10;;;19.70;99.90;;;;;;5069695;28;20040;-86
2023/08/04 12:59:37;;;;;;;1.60;1.40;;;20.10;99.90;;;;;;5031451;28;20021;-86
2023/08/04 13:02:03;;;;;;;1.50;1.40;;;20.60;99.90;;;;;;5034472;28;20037;-86
2023/08/04 13:04:28;;;;;;;1.40;1.00;;;20.70;99.90;;;;;;5049710;28;20032;-85
2023/08/04 13:06:54;;;;;;;1.10;1.00;;;20.90;99.90;;;;;;5050401;28;20032;-85
2023/08/04 13:09:20;;;;;;;1.63;1.17;;;21.30;99.90;;;;;;5054067;28;20606;-85
2023/08/04 13:11:46;;;;;;;1.40;1.30;;;21.70;99.90;;;;;;5053665;28;20032;-86
2023/08/04 13:14:12;;;;;;;1.35;1.25;;;22.30;99.90;;;;;;5048931;28;20028;-86
2023/08/04 13:16:37;;;;;;;4.50;1.27;;;22.80;99.90;;;;;;5047741;28;20029;-86
2023/08/04 13:19:04;;;;;;;2.35;1.20;;;22.30;99.90;;;;;;5050374;28;20043;-85
2023/08/04 13:21:29;;;;;;;1.65;1.55;;;22.20;99.90;;;;;;5050495;28;20419;-85
2023/08/04 13:23:55;;;;;;;3.55;1.60;;;21.90;99.90;;;;;;5035638;28;20021;-85
2023/08/04 13:26:20;;;;;;;1.33;1.23;;;21.60;99.90;;;;;;5051853;28;20025;-85
2023/08/04 13:28:46;;;;;;;1.33;1.23;;;21.50;99.90;;;;;;5051743;28;20024;-85
2023/08/04 13:31:12;;;;;;;3.60;1.67;;;21.00;99.90;;;;;;5050677;28;20052;-86
2023/08/04 13:33:38;;;;;;;1.60;1.50;;;20.30;99.90;;;;;;5047947;28;20032;-86
2023/08/04 13:36:04;;;;;;;4.00;1.83;;;19.80;99.90;;;;;;5053590;28;20044;-85
2023/08/04 13:38:30;;;;;;;2.20;1.52;;;19.60;99.90;;;;;;5026443;28;20468;-85
2023/08/04 13:40:55;;;;;;;2.63;1.63;;;19.50;99.90;;;;;;5052114;28;20025;-86
2023/08/04 13:43:21;;;;;;;4.57;1.75;;;19.60;99.90;;;;;;5054744;28;20036;-85
2023/08/04 13:45:47;;;;;;;2.17;1.85;;;19.40;99.90;;;;;;5052828;28;20388;-85
2023/08/04 13:48:13;;;;;;;2.70;2.13;;;19.30;99.90;;;;;;5033386;28;20040;-85
2023/08/04 13:50:38;;;;;;;2.78;2.40;;;19.30;99.90;;;;;;5032200;28;20516;-85
2023/08/04 13:53:04;;;;;;;4.05;2.70;;;19.20;99.90;;;;;;5052314;28;20476;-85
2023/08/04 13:55:30;;;;;;;4.93;3.67;;;18.90;99.90;;;;;;5054161;28;20039;-86
2023/08/04 13:57:55;;;;;;;4.07;3.10;;;18.60;99.90;;;;;;5053044;28;20029;-86
2023/08/04 14:04:08;;;;;;;7.18;3.25;;;18.20;99.90;;;;;;5052075;28;20044;-86
2023/08/04 14:06:34;;;;;;;8.57;3.72;;;18.20;99.90;;;;;;5037240;28;20037;-85
2023/08/04 14:09:02;;;;;;;6.95;4.35;;;18.30;99.90;;;;;;5045822;28;20020;-86
2023/08/04 14:11:27;;;;;;;7.45;3.90;;;18.40;99.90;;;;;;5038207;28;20040;-86